sensor_id;sensor_type;location;lat;lon;timestamp;P1;durP1;ratioP1;P2;durP2;ratioP2
43552;SDS011;29153;42.696;23.218;2023-03-31T00:00:51;3.75;;;1.92;;
43552;SDS011;29153;42.696;23.218;2023-03-31T00:03:21;2.42;;;0.90;;
43552;SDS011;29153;42.696;23.218;2023-03-31T00:05:56;3.37;;;0.98;;
43552;SDS011;29153;42.696;23.218;2023-03-31T00:10:57;4.37;;;0.68;;
43552;SDS011;29153;42.696;23.218;2023-03-31T00:13:26;3.25;;;0.70;;
43552;SDS011;29153;42.696;23.218;2023-03-31T00:15:56;3.47;;;1.12;;
43552;SDS011;29153;42.696;23.218;2023-03-31T00:18:25;3.02;;;0.60;;
43552;SDS011;29153;42.696;23.218;2023-03-31T00:20:52;5.22;;;1.07;;
43552;SDS011;29153;42.696;23.218;2023-03-31T00:23:22;3.65;;;0.85;;
43552;SDS011;29153;42.696;23.218;2023-03-31T00:25:51;3.12;;;0.40;;
43552;SDS011;29153;42.696;23.218;2023-03-31T00:28:19;6.97;;;1.95;;
43552;SDS011;29153;42.696;23.218;2023-03-31T00:30:46;7.00;;;2.98;;
43552;SDS011;29153;42.696;23.218;2023-03-31T00:35:41;11.25;;;4.92;;
43552;SDS011;29153;42.696;23.218;2023-03-31T00:38:10;10.18;;;3.80;;
43552;SDS011;29153;42.696;23.218;2023-03-31T00:40:43;11.57;;;4.87;;
43552;SDS011;29153;42.696;23.218;2023-03-31T00:43:21;13.68;;;5.87;;
43552;SDS011;29153;42.696;23.218;2023-03-31T00:45:46;14.70;;;5.55;;
43552;SDS011;29153;42.696;23.218;2023-03-31T00:48:15;14.83;;;5.75;;
43552;SDS011;29153;42.696;23.218;2023-03-31T00:50:48;10.98;;;4.83;;
43552;SDS011;29153;42.696;23.218;2023-03-31T00:53:25;14.15;;;6.08;;
43552;SDS011;29153;42.696;23.218;2023-03-31T00:55:54;16.82;;;6.92;;
43552;SDS011;29153;42.696;23.218;2023-03-31T00:58:24;15.40;;;6.30;;
43552;SDS011;29153;42.696;23.218;2023-03-31T01:00:57;16.05;;;6.20;;
43552;SDS011;29153;42.696;23.218;2023-03-31T01:03:27;9.08;;;3.20;;
43552;SDS011;29153;42.696;23.218;2023-03-31T01:06:03;8.10;;;3.85;;
43552;SDS011;29153;42.696;23.218;2023-03-31T01:08:31;5.47;;;1.60;;
43552;SDS011;29153;42.696;23.218;2023-03-31T01:11:02;3.72;;;1.00;;
43552;SDS011;29153;42.696;23.218;2023-03-31T01:13:35;13.10;;;6.75;;
43552;SDS011;29153;42.696;23.218;2023-03-31T01:16:04;19.57;;;8.20;;
43552;SDS011;29153;42.696;23.218;2023-03-31T01:18:32;19.70;;;6.72;;
43552;SDS011;29153;42.696;23.218;2023-03-31T01:29:52;15.48;;;7.72;;
43552;SDS011;29153;42.696;23.218;2023-03-31T01:46:40;3.25;;;0.82;;
43552;SDS011;29153;42.696;23.218;2023-03-31T01:52:09;3.02;;;1.10;;
43552;SDS011;29153;42.696;23.218;2023-03-31T01:54:48;2.47;;;0.80;;
43552;SDS011;29153;42.696;23.218;2023-03-31T01:57:36;2.45;;;0.65;;
43552;SDS011;29153;42.696;23.218;2023-03-31T02:02:44;2.02;;;0.53;;
43552;SDS011;29153;42.696;23.218;2023-03-31T02:05:14;2.15;;;0.60;;
43552;SDS011;29153;42.696;23.218;2023-03-31T02:07:45;2.80;;;0.70;;
43552;SDS011;29153;42.696;23.218;2023-03-31T02:10:14;2.02;;;0.90;;
43552;SDS011;29153;42.696;23.218;2023-03-31T02:12:44;3.17;;;0.93;;
43552;SDS011;29153;42.696;23.218;2023-03-31T02:15:14;1.87;;;0.50;;
43552;SDS011;29153;42.696;23.218;2023-03-31T02:17:43;2.10;;;0.65;;
43552;SDS011;29153;42.696;23.218;2023-03-31T02:20:16;2.70;;;0.68;;
43552;SDS011;29153;42.696;23.218;2023-03-31T02:22:46;2.10;;;0.80;;
43552;SDS011;29153;42.696;23.218;2023-03-31T02:25:16;2.83;;;0.75;;
43552;SDS011;29153;42.696;23.218;2023-03-31T02:27:51;2.58;;;0.75;;
43552;SDS011;29153;42.696;23.218;2023-03-31T02:30:19;5.47;;;0.90;;
43552;SDS011;29153;42.696;23.218;2023-03-31T02:32:47;3.45;;;1.22;;
43552;SDS011;29153;42.696;23.218;2023-03-31T02:35:15;4.12;;;1.05;;
43552;SDS011;29153;42.696;23.218;2023-03-31T02:37:45;4.00;;;1.00;;
43552;SDS011;29153;42.696;23.218;2023-03-31T02:40:16;5.95;;;1.10;;
43552;SDS011;29153;42.696;23.218;2023-03-31T02:42:46;4.92;;;1.57;;
43552;SDS011;29153;42.696;23.218;2023-03-31T02:47:59;3.42;;;0.98;;
43552;SDS011;29153;42.696;23.218;2023-03-31T02:50:28;3.58;;;1.50;;
43552;SDS011;29153;42.696;23.218;2023-03-31T02:53:00;4.67;;;1.52;;
43552;SDS011;29153;42.696;23.218;2023-03-31T02:55:42;3.58;;;1.07;;
43552;SDS011;29153;42.696;23.218;2023-03-31T02:58:11;3.77;;;1.60;;
43552;SDS011;29153;42.696;23.218;2023-03-31T03:00:46;5.45;;;0.98;;
43552;SDS011;29153;42.696;23.218;2023-03-31T03:06:21;2.92;;;1.12;;
43552;SDS011;29153;42.696;23.218;2023-03-31T03:14:43;4.95;;;1.85;;
43552;SDS011;29153;42.696;23.218;2023-03-31T03:17:06;6.50;;;1.67;;
43552;SDS011;29153;42.696;23.218;2023-03-31T03:19:41;4.45;;;1.75;;
43552;SDS011;29153;42.696;23.218;2023-03-31T03:22:09;4.60;;;1.75;;
43552;SDS011;29153;42.696;23.218;2023-03-31T03:24:36;5.17;;;1.80;;
43552;SDS011;29153;42.696;23.218;2023-03-31T03:27:04;5.97;;;2.40;;
43552;SDS011;29153;42.696;23.218;2023-03-31T03:29:31;4.72;;;2.20;;
43552;SDS011;29153;42.696;23.218;2023-03-31T03:31:59;5.62;;;1.57;;
43552;SDS011;29153;42.696;23.218;2023-03-31T03:34:26;4.62;;;1.62;;
43552;SDS011;29153;42.696;23.218;2023-03-31T03:36:54;5.00;;;2.30;;
43552;SDS011;29153;42.696;23.218;2023-03-31T03:39:21;6.62;;;1.40;;
43552;SDS011;29153;42.696;23.218;2023-03-31T03:41:49;6.12;;;1.72;;
43552;SDS011;29153;42.696;23.218;2023-03-31T03:44:16;5.40;;;2.10;;
43552;SDS011;29153;42.696;23.218;2023-03-31T03:46:44;4.35;;;1.65;;
43552;SDS011;29153;42.696;23.218;2023-03-31T03:49:10;4.95;;;1.45;;
43552;SDS011;29153;42.696;23.218;2023-03-31T03:51:38;7.35;;;2.20;;
43552;SDS011;29153;42.696;23.218;2023-03-31T03:54:05;5.78;;;3.35;;
43552;SDS011;29153;42.696;23.218;2023-03-31T03:56:33;28.55;;;10.23;;
43552;SDS011;29153;42.696;23.218;2023-03-31T03:59:00;14.60;;;6.67;;
43552;SDS011;29153;42.696;23.218;2023-03-31T04:01:28;9.20;;;3.02;;
43552;SDS011;29153;42.696;23.218;2023-03-31T04:03:56;8.30;;;3.45;;
43552;SDS011;29153;42.696;23.218;2023-03-31T04:06:23;6.50;;;2.75;;
43552;SDS011;29153;42.696;23.218;2023-03-31T04:08:51;6.92;;;2.12;;
43552;SDS011;29153;42.696;23.218;2023-03-31T04:11:19;4.85;;;2.05;;
43552;SDS011;29153;42.696;23.218;2023-03-31T04:13:47;4.42;;;1.32;;
43552;SDS011;29153;42.696;23.218;2023-03-31T04:16:14;3.30;;;1.10;;
43552;SDS011;29153;42.696;23.218;2023-03-31T04:18:42;3.30;;;0.98;;
43552;SDS011;29153;42.696;23.218;2023-03-31T04:21:10;4.58;;;1.10;;
43552;SDS011;29153;42.696;23.218;2023-03-31T04:23:40;4.53;;;1.12;;
43552;SDS011;29153;42.696;23.218;2023-03-31T04:26:10;3.95;;;1.45;;
43552;SDS011;29153;42.696;23.218;2023-03-31T04:28:42;3.77;;;1.00;;
43552;SDS011;29153;42.696;23.218;2023-03-31T04:31:15;3.15;;;0.70;;
43552;SDS011;29153;42.696;23.218;2023-03-31T04:33:48;2.70;;;1.00;;
43552;SDS011;29153;42.696;23.218;2023-03-31T04:36:15;3.37;;;0.93;;
43552;SDS011;29153;42.696;23.218;2023-03-31T04:38:48;3.10;;;0.95;;
43552;SDS011;29153;42.696;23.218;2023-03-31T04:41:15;3.02;;;0.80;;
43552;SDS011;29153;42.696;23.218;2023-03-31T04:43:43;2.80;;;0.90;;
43552;SDS011;29153;42.696;23.218;2023-03-31T04:46:10;2.85;;;0.72;;
43552;SDS011;29153;42.696;23.218;2023-03-31T04:48:38;1.98;;;0.68;;
43552;SDS011;29153;42.696;23.218;2023-03-31T04:51:06;2.83;;;0.60;;
43552;SDS011;29153;42.696;23.218;2023-03-31T04:53:34;2.10;;;0.50;;
43552;SDS011;29153;42.696;23.218;2023-03-31T04:56:03;2.40;;;0.60;;
43552;SDS011;29153;42.696;23.218;2023-03-31T04:58:32;2.27;;;1.27;;
43552;SDS011;29153;42.696;23.218;2023-03-31T05:00:59;2.52;;;0.70;;
43552;SDS011;29153;42.696;23.218;2023-03-31T05:03:27;2.92;;;1.10;;
43552;SDS011;29153;42.696;23.218;2023-03-31T05:05:54;2.62;;;0.57;;
43552;SDS011;29153;42.696;23.218;2023-03-31T05:08:22;4.20;;;0.78;;
43552;SDS011;29153;42.696;23.218;2023-03-31T05:10:49;2.52;;;0.98;;
43552;SDS011;29153;42.696;23.218;2023-03-31T05:13:16;3.95;;;0.60;;
43552;SDS011;29153;42.696;23.218;2023-03-31T05:15:44;2.17;;;0.65;;
43552;SDS011;29153;42.696;23.218;2023-03-31T05:18:13;2.27;;;0.60;;
43552;SDS011;29153;42.696;23.218;2023-03-31T05:20:40;3.25;;;0.82;;
43552;SDS011;29153;42.696;23.218;2023-03-31T05:23:08;3.47;;;1.17;;
43552;SDS011;29153;42.696;23.218;2023-03-31T05:25:35;3.70;;;0.70;;
43552;SDS011;29153;42.696;23.218;2023-03-31T05:28:03;2.25;;;0.62;;
43552;SDS011;29153;42.696;23.218;2023-03-31T05:30:30;3.65;;;1.05;;
43552;SDS011;29153;42.696;23.218;2023-03-31T05:32:58;3.00;;;1.05;;
43552;SDS011;29153;42.696;23.218;2023-03-31T05:35:25;6.20;;;1.20;;
43552;SDS011;29153;42.696;23.218;2023-03-31T05:37:54;4.35;;;0.90;;
43552;SDS011;29153;42.696;23.218;2023-03-31T05:40:21;2.25;;;0.90;;
43552;SDS011;29153;42.696;23.218;2023-03-31T05:42:49;2.65;;;1.00;;
43552;SDS011;29153;42.696;23.218;2023-03-31T05:45:16;3.17;;;0.65;;
43552;SDS011;29153;42.696;23.218;2023-03-31T05:47:44;5.03;;;0.75;;
43552;SDS011;29153;42.696;23.218;2023-03-31T05:50:13;4.50;;;0.82;;
43552;SDS011;29153;42.696;23.218;2023-03-31T05:52:40;3.72;;;0.93;;
43552;SDS011;29153;42.696;23.218;2023-03-31T05:55:08;3.33;;;0.98;;
43552;SDS011;29153;42.696;23.218;2023-03-31T05:57:36;4.60;;;0.70;;
43552;SDS011;29153;42.696;23.218;2023-03-31T06:00:03;5.58;;;1.15;;
43552;SDS011;29153;42.696;23.218;2023-03-31T06:02:33;3.83;;;0.80;;
43552;SDS011;29153;42.696;23.218;2023-03-31T06:05:00;3.87;;;0.93;;
43552;SDS011;29153;42.696;23.218;2023-03-31T06:07:28;3.92;;;0.90;;
43552;SDS011;29153;42.696;23.218;2023-03-31T06:09:56;4.22;;;0.95;;
43552;SDS011;29153;42.696;23.218;2023-03-31T06:14:51;3.98;;;1.22;;
43552;SDS011;29153;42.696;23.218;2023-03-31T06:17:18;3.65;;;0.98;;
43552;SDS011;29153;42.696;23.218;2023-03-31T06:19:48;3.08;;;1.00;;
43552;SDS011;29153;42.696;23.218;2023-03-31T06:22:16;4.80;;;1.45;;
43552;SDS011;29153;42.696;23.218;2023-03-31T06:24:43;4.17;;;0.93;;
43552;SDS011;29153;42.696;23.218;2023-03-31T06:27:11;4.33;;;1.15;;
43552;SDS011;29153;42.696;23.218;2023-03-31T06:29:38;3.98;;;1.90;;
43552;SDS011;29153;42.696;23.218;2023-03-31T06:32:05;5.67;;;1.25;;
43552;SDS011;29153;42.696;23.218;2023-03-31T06:34:33;5.35;;;1.45;;
43552;SDS011;29153;42.696;23.218;2023-03-31T06:37:00;3.65;;;1.05;;
43552;SDS011;29153;42.696;23.218;2023-03-31T06:39:28;4.75;;;1.80;;
43552;SDS011;29153;42.696;23.218;2023-03-31T06:41:55;7.05;;;2.17;;
43552;SDS011;29153;42.696;23.218;2023-03-31T06:44:23;5.17;;;1.30;;
43552;SDS011;29153;42.696;23.218;2023-03-31T06:46:50;3.55;;;0.80;;
43552;SDS011;29153;42.696;23.218;2023-03-31T06:49:18;6.42;;;1.80;;
43552;SDS011;29153;42.696;23.218;2023-03-31T06:51:45;6.72;;;1.57;;
43552;SDS011;29153;42.696;23.218;2023-03-31T06:54:13;6.95;;;1.42;;
43552;SDS011;29153;42.696;23.218;2023-03-31T06:56:40;6.60;;;1.75;;
43552;SDS011;29153;42.696;23.218;2023-03-31T06:59:08;4.37;;;1.05;;
43552;SDS011;29153;42.696;23.218;2023-03-31T07:01:35;6.42;;;1.50;;
43552;SDS011;29153;42.696;23.218;2023-03-31T07:04:03;4.35;;;1.20;;
43552;SDS011;29153;42.696;23.218;2023-03-31T07:06:31;5.15;;;1.20;;
43552;SDS011;29153;42.696;23.218;2023-03-31T07:08:59;5.53;;;1.50;;
43552;SDS011;29153;42.696;23.218;2023-03-31T07:11:26;4.35;;;1.77;;
43552;SDS011;29153;42.696;23.218;2023-03-31T07:13:54;6.78;;;1.52;;
43552;SDS011;29153;42.696;23.218;2023-03-31T07:16:21;7.65;;;3.00;;
43552;SDS011;29153;42.696;23.218;2023-03-31T07:18:49;6.58;;;3.12;;
43552;SDS011;29153;42.696;23.218;2023-03-31T07:21:18;7.17;;;2.02;;
43552;SDS011;29153;42.696;23.218;2023-03-31T07:23:46;9.13;;;2.35;;
43552;SDS011;29153;42.696;23.218;2023-03-31T07:26:13;7.78;;;2.30;;
43552;SDS011;29153;42.696;23.218;2023-03-31T07:28:40;5.55;;;2.10;;
43552;SDS011;29153;42.696;23.218;2023-03-31T07:31:11;4.87;;;2.12;;
43552;SDS011;29153;42.696;23.218;2023-03-31T07:33:39;7.50;;;2.98;;
43552;SDS011;29153;42.696;23.218;2023-03-31T07:36:07;7.83;;;2.20;;
43552;SDS011;29153;42.696;23.218;2023-03-31T07:38:35;5.28;;;1.87;;
43552;SDS011;29153;42.696;23.218;2023-03-31T07:41:03;10.08;;;2.05;;
43552;SDS011;29153;42.696;23.218;2023-03-31T07:43:30;6.78;;;1.98;;
43552;SDS011;29153;42.696;23.218;2023-03-31T07:45:58;6.72;;;1.90;;
43552;SDS011;29153;42.696;23.218;2023-03-31T07:48:25;7.58;;;2.10;;
43552;SDS011;29153;42.696;23.218;2023-03-31T07:50:53;5.78;;;1.80;;
43552;SDS011;29153;42.696;23.218;2023-03-31T07:53:21;6.92;;;2.25;;
43552;SDS011;29153;42.696;23.218;2023-03-31T07:55:48;5.75;;;1.80;;
43552;SDS011;29153;42.696;23.218;2023-03-31T07:58:16;8.13;;;1.85;;
43552;SDS011;29153;42.696;23.218;2023-03-31T08:03:10;4.92;;;2.55;;
43552;SDS011;29153;42.696;23.218;2023-03-31T08:05:38;5.75;;;1.70;;
43552;SDS011;29153;42.696;23.218;2023-03-31T08:08:05;6.28;;;1.70;;
43552;SDS011;29153;42.696;23.218;2023-03-31T08:10:33;4.87;;;1.98;;
43552;SDS011;29153;42.696;23.218;2023-03-31T08:13:00;7.45;;;1.60;;
43552;SDS011;29153;42.696;23.218;2023-03-31T08:15:28;5.90;;;2.05;;
43552;SDS011;29153;42.696;23.218;2023-03-31T08:20:22;6.70;;;1.77;;
43552;SDS011;29153;42.696;23.218;2023-03-31T08:22:50;6.50;;;1.50;;
43552;SDS011;29153;42.696;23.218;2023-03-31T08:25:17;7.37;;;1.32;;
43552;SDS011;29153;42.696;23.218;2023-03-31T08:27:45;8.10;;;1.80;;
43552;SDS011;29153;42.696;23.218;2023-03-31T08:30:16;5.25;;;1.40;;
43552;SDS011;29153;42.696;23.218;2023-03-31T08:32:45;6.22;;;1.45;;
43552;SDS011;29153;42.696;23.218;2023-03-31T08:35:12;5.80;;;1.37;;
43552;SDS011;29153;42.696;23.218;2023-03-31T08:37:40;6.30;;;2.10;;
43552;SDS011;29153;42.696;23.218;2023-03-31T08:40:09;5.85;;;1.40;;
43552;SDS011;29153;42.696;23.218;2023-03-31T08:42:52;4.90;;;1.52;;
43552;SDS011;29153;42.696;23.218;2023-03-31T08:45:21;5.58;;;1.67;;
43552;SDS011;29153;42.696;23.218;2023-03-31T08:47:54;5.70;;;1.30;;
43552;SDS011;29153;42.696;23.218;2023-03-31T08:50:27;7.37;;;1.20;;
43552;SDS011;29153;42.696;23.218;2023-03-31T08:53:04;6.28;;;1.05;;
43552;SDS011;29153;42.696;23.218;2023-03-31T08:55:35;3.98;;;0.93;;
43552;SDS011;29153;42.696;23.218;2023-03-31T09:01:07;4.78;;;1.15;;
43552;SDS011;29153;42.696;23.218;2023-03-31T09:06:38;4.65;;;1.10;;
43552;SDS011;29153;42.696;23.218;2023-03-31T09:09:45;5.65;;;1.40;;
43552;SDS011;29153;42.696;23.218;2023-03-31T09:12:16;5.03;;;1.20;;
43552;SDS011;29153;42.696;23.218;2023-03-31T09:14:54;2.83;;;1.25;;
43552;SDS011;29153;42.696;23.218;2023-03-31T09:17:28;10.38;;;1.35;;
43552;SDS011;29153;42.696;23.218;2023-03-31T09:20:11;5.65;;;1.15;;
43552;SDS011;29153;42.696;23.218;2023-03-31T09:22:46;6.12;;;0.80;;
43552;SDS011;29153;42.696;23.218;2023-03-31T09:27:48;8.83;;;1.25;;
43552;SDS011;29153;42.696;23.218;2023-03-31T09:30:20;3.00;;;0.75;;
43552;SDS011;29153;42.696;23.218;2023-03-31T09:32:48;3.05;;;0.98;;
43552;SDS011;29153;42.696;23.218;2023-03-31T09:35:35;3.62;;;1.20;;
43552;SDS011;29153;42.696;23.218;2023-03-31T09:38:03;2.92;;;0.95;;
43552;SDS011;29153;42.696;23.218;2023-03-31T09:40:30;3.85;;;0.95;;
43552;SDS011;29153;42.696;23.218;2023-03-31T09:43:00;4.70;;;1.20;;
43552;SDS011;29153;42.696;23.218;2023-03-31T09:45:33;4.53;;;0.85;;
43552;SDS011;29153;42.696;23.218;2023-03-31T09:48:02;4.87;;;1.67;;
43552;SDS011;29153;42.696;23.218;2023-03-31T09:50:32;8.13;;;1.90;;
43552;SDS011;29153;42.696;23.218;2023-03-31T09:53:19;3.55;;;1.10;;
43552;SDS011;29153;42.696;23.218;2023-03-31T09:55:54;5.05;;;1.05;;
43552;SDS011;29153;42.696;23.218;2023-03-31T09:58:23;5.58;;;0.90;;
43552;SDS011;29153;42.696;23.218;2023-03-31T10:03:27;7.28;;;1.30;;
43552;SDS011;29153;42.696;23.218;2023-03-31T10:05:57;4.15;;;1.50;;
43552;SDS011;29153;42.696;23.218;2023-03-31T10:08:26;8.95;;;1.00;;
43552;SDS011;29153;42.696;23.218;2023-03-31T10:13:40;4.22;;;0.98;;
43552;SDS011;29153;42.696;23.218;2023-03-31T10:16:12;4.87;;;0.90;;
43552;SDS011;29153;42.696;23.218;2023-03-31T10:18:41;3.50;;;0.90;;
43552;SDS011;29153;42.696;23.218;2023-03-31T10:21:20;3.50;;;1.10;;
43552;SDS011;29153;42.696;23.218;2023-03-31T10:23:52;3.65;;;1.47;;
43552;SDS011;29153;42.696;23.218;2023-03-31T10:28:49;3.37;;;0.78;;
43552;SDS011;29153;42.696;23.218;2023-03-31T10:31:22;5.03;;;1.07;;
43552;SDS011;29153;42.696;23.218;2023-03-31T10:33:50;3.80;;;0.68;;
43552;SDS011;29153;42.696;23.218;2023-03-31T10:36:22;6.35;;;1.92;;
43552;SDS011;29153;42.696;23.218;2023-03-31T10:38:54;6.33;;;1.02;;
43552;SDS011;29153;42.696;23.218;2023-03-31T10:41:27;4.62;;;1.27;;
43552;SDS011;29153;42.696;23.218;2023-03-31T10:43:56;4.42;;;1.00;;
43552;SDS011;29153;42.696;23.218;2023-03-31T10:46:39;6.47;;;1.40;;
43552;SDS011;29153;42.696;23.218;2023-03-31T10:49:19;4.95;;;1.15;;
43552;SDS011;29153;42.696;23.218;2023-03-31T10:51:58;4.70;;;1.00;;
43552;SDS011;29153;42.696;23.218;2023-03-31T10:54:22;4.70;;;1.55;;
43552;SDS011;29153;42.696;23.218;2023-03-31T10:56:51;6.62;;;1.15;;
43552;SDS011;29153;42.696;23.218;2023-03-31T10:59:45;5.65;;;1.22;;
43552;SDS011;29153;42.696;23.218;2023-03-31T11:02:34;10.70;;;1.17;;
43552;SDS011;29153;42.696;23.218;2023-03-31T11:13:47;3.85;;;0.90;;
43552;SDS011;29153;42.696;23.218;2023-03-31T11:18:49;3.10;;;0.85;;
43552;SDS011;29153;42.696;23.218;2023-03-31T11:29:59;2.83;;;1.17;;
43552;SDS011;29153;42.696;23.218;2023-03-31T11:33:04;4.40;;;1.17;;
43552;SDS011;29153;42.696;23.218;2023-03-31T11:38:14;5.12;;;1.07;;
43552;SDS011;29153;42.696;23.218;2023-03-31T11:40:57;5.87;;;0.98;;
43552;SDS011;29153;42.696;23.218;2023-03-31T11:43:35;3.50;;;0.80;;
43552;SDS011;29153;42.696;23.218;2023-03-31T11:46:08;3.60;;;0.82;;
43552;SDS011;29153;42.696;23.218;2023-03-31T11:48:40;6.05;;;1.20;;
43552;SDS011;29153;42.696;23.218;2023-03-31T11:51:21;4.42;;;1.02;;
43552;SDS011;29153;42.696;23.218;2023-03-31T11:53:53;5.78;;;1.15;;
43552;SDS011;29153;42.696;23.218;2023-03-31T11:56:24;6.10;;;1.70;;
43552;SDS011;29153;42.696;23.218;2023-03-31T11:58:55;11.40;;;1.17;;
43552;SDS011;29153;42.696;23.218;2023-03-31T12:01:42;5.37;;;1.17;;
43552;SDS011;29153;42.696;23.218;2023-03-31T12:04:25;6.50;;;1.30;;
43552;SDS011;29153;42.696;23.218;2023-03-31T12:07:03;9.03;;;1.98;;
43552;SDS011;29153;42.696;23.218;2023-03-31T12:09:52;4.67;;;1.57;;
43552;SDS011;29153;42.696;23.218;2023-03-31T12:12:28;4.60;;;1.10;;
43552;SDS011;29153;42.696;23.218;2023-03-31T12:15:18;6.75;;;1.25;;
43552;SDS011;29153;42.696;23.218;2023-03-31T12:18:02;5.15;;;1.60;;
43552;SDS011;29153;42.696;23.218;2023-03-31T12:20:31;9.50;;;1.20;;
43552;SDS011;29153;42.696;23.218;2023-03-31T12:23:01;2.47;;;0.78;;
43552;SDS011;29153;42.696;23.218;2023-03-31T12:25:49;6.17;;;1.75;;
43552;SDS011;29153;42.696;23.218;2023-03-31T12:28:20;4.40;;;0.90;;
43552;SDS011;29153;42.696;23.218;2023-03-31T12:30:52;9.20;;;1.00;;
43552;SDS011;29153;42.696;23.218;2023-03-31T12:33:25;6.80;;;1.10;;
43552;SDS011;29153;42.696;23.218;2023-03-31T12:39:06;7.47;;;1.07;;
43552;SDS011;29153;42.696;23.218;2023-03-31T12:44:30;6.90;;;1.67;;
43552;SDS011;29153;42.696;23.218;2023-03-31T12:47:11;3.67;;;1.15;;
43552;SDS011;29153;42.696;23.218;2023-03-31T12:52:31;6.92;;;1.10;;
43552;SDS011;29153;42.696;23.218;2023-03-31T12:57:47;6.95;;;2.17;;
43552;SDS011;29153;42.696;23.218;2023-03-31T13:02:48;6.25;;;2.35;;
43552;SDS011;29153;42.696;23.218;2023-03-31T13:08:03;8.05;;;1.72;;
43552;SDS011;29153;42.696;23.218;2023-03-31T13:10:33;7.60;;;1.02;;
43552;SDS011;29153;42.696;23.218;2023-03-31T13:13:20;6.70;;;2.22;;
43552;SDS011;29153;42.696;23.218;2023-03-31T13:15:54;6.03;;;1.10;;
43552;SDS011;29153;42.696;23.218;2023-03-31T13:18:24;4.47;;;1.47;;
43552;SDS011;29153;42.696;23.218;2023-03-31T13:21:01;7.65;;;1.20;;
43552;SDS011;29153;42.696;23.218;2023-03-31T13:23:25;5.53;;;0.88;;
43552;SDS011;29153;42.696;23.218;2023-03-31T13:25:56;5.37;;;1.05;;
43552;SDS011;29153;42.696;23.218;2023-03-31T13:28:26;7.92;;;1.17;;
43552;SDS011;29153;42.696;23.218;2023-03-31T13:31:05;4.33;;;1.50;;
43552;SDS011;29153;42.696;23.218;2023-03-31T13:33:45;5.65;;;1.87;;
43552;SDS011;29153;42.696;23.218;2023-03-31T13:53:15;8.70;;;3.30;;
43552;SDS011;29153;42.696;23.218;2023-03-31T14:07:30;7.30;;;1.02;;
43552;SDS011;29153;42.696;23.218;2023-03-31T14:09:58;14.55;;;5.37;;
43552;SDS011;29153;42.696;23.218;2023-03-31T14:15:03;6.15;;;1.42;;
43552;SDS011;29153;42.696;23.218;2023-03-31T14:17:36;4.53;;;1.50;;
43552;SDS011;29153;42.696;23.218;2023-03-31T14:22:54;12.63;;;4.35;;
43552;SDS011;29153;42.696;23.218;2023-03-31T14:25:26;7.08;;;1.70;;
43552;SDS011;29153;42.696;23.218;2023-03-31T14:37:06;6.00;;;1.85;;
43552;SDS011;29153;42.696;23.218;2023-03-31T14:39:42;10.25;;;2.90;;
43552;SDS011;29153;42.696;23.218;2023-03-31T14:44:42;2.90;;;1.10;;
43552;SDS011;29153;42.696;23.218;2023-03-31T14:47:13;7.35;;;1.82;;
43552;SDS011;29153;42.696;23.218;2023-03-31T14:49:42;7.12;;;2.20;;
43552;SDS011;29153;42.696;23.218;2023-03-31T14:52:14;13.45;;;5.47;;
43552;SDS011;29153;42.696;23.218;2023-03-31T14:54:44;7.80;;;2.55;;
43552;SDS011;29153;42.696;23.218;2023-03-31T14:57:14;11.08;;;4.42;;
43552;SDS011;29153;42.696;23.218;2023-03-31T14:59:43;4.70;;;1.40;;
43552;SDS011;29153;42.696;23.218;2023-03-31T15:02:13;5.55;;;1.47;;
43552;SDS011;29153;42.696;23.218;2023-03-31T15:04:42;7.08;;;2.02;;
43552;SDS011;29153;42.696;23.218;2023-03-31T15:07:12;10.35;;;3.92;;
43552;SDS011;29153;42.696;23.218;2023-03-31T15:09:43;8.73;;;1.85;;
43552;SDS011;29153;42.696;23.218;2023-03-31T15:12:16;11.28;;;1.85;;
43552;SDS011;29153;42.696;23.218;2023-03-31T15:14:53;8.10;;;1.90;;
43552;SDS011;29153;42.696;23.218;2023-03-31T15:17:21;13.78;;;5.35;;
43552;SDS011;29153;42.696;23.218;2023-03-31T15:19:56;9.95;;;5.15;;
43552;SDS011;29153;42.696;23.218;2023-03-31T15:22:26;10.60;;;2.55;;
43552;SDS011;29153;42.696;23.218;2023-03-31T15:24:55;5.53;;;1.42;;
43552;SDS011;29153;42.696;23.218;2023-03-31T15:27:29;3.60;;;1.55;;
43552;SDS011;29153;42.696;23.218;2023-03-31T15:29:59;8.33;;;2.10;;
43552;SDS011;29153;42.696;23.218;2023-03-31T15:32:30;5.50;;;1.67;;
43552;SDS011;29153;42.696;23.218;2023-03-31T15:35:00;7.25;;;1.57;;
43552;SDS011;29153;42.696;23.218;2023-03-31T15:37:30;13.10;;;1.70;;
43552;SDS011;29153;42.696;23.218;2023-03-31T15:40:21;4.20;;;1.67;;
43552;SDS011;29153;42.696;23.218;2023-03-31T15:43:03;9.60;;;3.55;;
43552;SDS011;29153;42.696;23.218;2023-03-31T15:45:46;10.40;;;4.50;;
43552;SDS011;29153;42.696;23.218;2023-03-31T15:48:34;13.32;;;2.67;;
43552;SDS011;29153;42.696;23.218;2023-03-31T15:51:15;15.20;;;5.95;;
43552;SDS011;29153;42.696;23.218;2023-03-31T15:53:43;7.40;;;3.50;;
43552;SDS011;29153;42.696;23.218;2023-03-31T15:56:29;5.30;;;1.82;;
43552;SDS011;29153;42.696;23.218;2023-03-31T15:58:58;7.70;;;2.37;;
43552;SDS011;29153;42.696;23.218;2023-03-31T16:01:32;11.10;;;5.20;;
43552;SDS011;29153;42.696;23.218;2023-03-31T16:04:08;8.85;;;2.70;;
43552;SDS011;29153;42.696;23.218;2023-03-31T16:06:44;8.08;;;2.40;;
43552;SDS011;29153;42.696;23.218;2023-03-31T16:09:18;7.00;;;2.27;;
43552;SDS011;29153;42.696;23.218;2023-03-31T16:11:55;6.90;;;1.90;;
43552;SDS011;29153;42.696;23.218;2023-03-31T16:14:37;6.53;;;1.60;;
43552;SDS011;29153;42.696;23.218;2023-03-31T16:17:03;8.05;;;1.70;;
43552;SDS011;29153;42.696;23.218;2023-03-31T16:19:43;8.93;;;1.42;;
43552;SDS011;29153;42.696;23.218;2023-03-31T16:22:13;5.53;;;1.40;;
43552;SDS011;29153;42.696;23.218;2023-03-31T16:24:43;5.00;;;1.47;;
43552;SDS011;29153;42.696;23.218;2023-03-31T16:27:11;7.15;;;1.92;;
43552;SDS011;29153;42.696;23.218;2023-03-31T16:29:39;6.85;;;1.67;;
43552;SDS011;29153;42.696;23.218;2023-03-31T16:37:19;12.23;;;1.95;;
43552;SDS011;29153;42.696;23.218;2023-03-31T16:39:46;3.62;;;1.57;;
43552;SDS011;29153;42.696;23.218;2023-03-31T16:42:14;5.45;;;1.47;;
43552;SDS011;29153;42.696;23.218;2023-03-31T16:44:41;4.35;;;1.80;;
43552;SDS011;29153;42.696;23.218;2023-03-31T16:47:11;7.62;;;1.92;;
43552;SDS011;29153;42.696;23.218;2023-03-31T16:49:39;8.40;;;2.22;;
43552;SDS011;29153;42.696;23.218;2023-03-31T16:52:07;6.30;;;1.90;;
43552;SDS011;29153;42.696;23.218;2023-03-31T16:54:34;14.40;;;3.08;;
43552;SDS011;29153;42.696;23.218;2023-03-31T16:57:02;5.80;;;1.50;;
43552;SDS011;29153;42.696;23.218;2023-03-31T16:59:29;5.08;;;1.92;;
43552;SDS011;29153;42.696;23.218;2023-03-31T17:01:57;7.37;;;1.40;;
43552;SDS011;29153;42.696;23.218;2023-03-31T17:04:24;3.33;;;2.30;;
43552;SDS011;29153;42.696;23.218;2023-03-31T17:06:52;5.90;;;1.50;;
43552;SDS011;29153;42.696;23.218;2023-03-31T17:09:20;8.53;;;1.80;;
43552;SDS011;29153;42.696;23.218;2023-03-31T17:11:48;11.53;;;2.33;;
43552;SDS011;29153;42.696;23.218;2023-03-31T17:14:15;6.28;;;2.45;;
43552;SDS011;29153;42.696;23.218;2023-03-31T17:16:43;8.53;;;2.95;;
43552;SDS011;29153;42.696;23.218;2023-03-31T17:19:10;8.23;;;2.65;;
43552;SDS011;29153;42.696;23.218;2023-03-31T17:21:38;10.38;;;3.95;;
43552;SDS011;29153;42.696;23.218;2023-03-31T17:24:05;11.63;;;4.72;;
43552;SDS011;29153;42.696;23.218;2023-03-31T17:26:33;14.63;;;4.62;;
43552;SDS011;29153;42.696;23.218;2023-03-31T17:29:02;20.72;;;6.03;;
43552;SDS011;29153;42.696;23.218;2023-03-31T17:31:30;12.05;;;3.83;;
43552;SDS011;29153;42.696;23.218;2023-03-31T17:33:57;7.65;;;2.25;;